Hovedside
METAR-TAF:

METAR-TAF

Lufthavner :

Ben Gurion internasjonale lufthavn

Tel Aviv / Ben Gurion, Israel

breddegrad: 32-00N, lengdegrad: 034-54E, høyde over havet: 40 m

Gjeldene værobservasjon

Denne rapporten ble laget for 16 minutter siden, klokken 15:20 UTC
Vind 10 kt fra Vest-nordvest
Temperatur 28°C
Luftfuktighet 58%
Trykk 1011 hPa
Sikt 10 km eller mer
ingen skyer under 1500 m og ingen bygeskyer

METAR: LLBG 201520Z 30010KT CAVOK 28/19 Q1011 NOSIG

Tid: 18:36 (15:36 UTC)

Varsel

Varsel gyldig fra 20. klokken 00 UTC til 20. klokken 24 UTC
Vind 3 kt fra skiftende retning
Sikt 10 km eller mer
Spredte skyer i en høyde av 2500 ft
Blir
fra 20. klokken 07 UTC til 20. klokken 09 UTC
Vind 10 kt fra Vest
Få skyer i en høyde av 3000 ft
Blir
fra 20. klokken 18 UTC til 20. klokken 20 UTC
Vind 4 kt fra skiftende retning
Spredte skyer i en høyde av 2000 ft

TAF: LLBG 2000/2024 VRB03KT 9999 SCT025 BECMG 2007/2009 28010KT FEW030 BECMG 2018/2020 VRB04KT SCT020 TX31/2012Z TN23/2003Z

Værobservasjoner og værvarsel for over 4000 flyplasser (METAR- og TAF-rapporter).

Tilgjengelige stasjoner er representert av de røde og gule prikkene på kartet.

Hold musepekeren over prikken for å se navnet på stasjonen.

Klikk så for å se værobservasjoner og -varsler.

For å forandre kartet kan du klikke på den grønne knappen med svart kryss for å zoome inn, på den grønne knappen med strek for å zoome ut, eller på de grønne pilene for å se tilstøtende kart.


METAR-TAF: